createdAt,value
2019-01-13T00:02:00.559Z,14.41
2019-01-13T00:04:31.476Z,14.59
2019-01-13T00:07:01.779Z,14.70
2019-01-13T00:09:33.027Z,14.44
2019-01-13T00:12:04.850Z,14.34
2019-01-13T00:14:35.183Z,14.75
2019-01-13T00:17:06.185Z,14.67
2019-01-13T00:19:36.507Z,14.74
2019-01-13T00:22:09.742Z,14.57
2019-01-13T00:24:40.640Z,14.65
2019-01-13T00:27:11.471Z,14.61
2019-01-13T00:29:42.217Z,14.50
2019-01-13T00:32:12.541Z,14.41
2019-01-13T00:34:43.279Z,14.45
2019-01-13T00:37:14.094Z,14.03
2019-01-13T00:39:45.771Z,14.25
2019-01-13T00:42:17.118Z,14.49
2019-01-13T00:44:47.498Z,14.40
2019-01-13T00:47:18.260Z,14.67
2019-01-13T00:49:48.550Z,14.24
2019-01-13T00:52:18.827Z,14.18
2019-01-13T00:54:50.494Z,14.29
2019-01-13T00:57:21.246Z,14.39
2019-01-13T00:59:52.552Z,14.10
2019-01-13T01:02:22.847Z,14.33
2019-01-13T01:04:53.204Z,14.26
2019-01-13T01:07:24.168Z,14.30
2019-01-13T01:09:55.417Z,14.33
2019-01-13T01:12:27.223Z,14.39
2019-01-13T01:14:57.574Z,14.69
2019-01-13T01:17:28.416Z,14.03
2019-01-13T01:19:58.770Z,13.41
2019-01-13T01:22:29.074Z,13.77
2019-01-13T01:24:59.337Z,13.88
2019-01-13T01:27:29.711Z,14.15
2019-01-13T01:30:00.561Z,14.39
2019-01-13T01:32:30.852Z,14.40
2019-01-13T01:35:01.153Z,14.40
2019-01-13T01:37:31.459Z,14.69
2019-01-13T01:40:01.831Z,14.73
2019-01-13T01:42:32.571Z,14.56
2019-01-13T01:45:03.356Z,14.64
2019-01-13T01:47:33.630Z,14.70
2019-01-13T01:50:05.444Z,14.44
2019-01-13T01:52:36.182Z,14.23
2019-01-13T01:55:08.140Z,14.36
2019-01-13T01:57:38.426Z,14.69
2019-01-13T02:00:14.464Z,14.58
2019-01-13T02:02:45.368Z,14.44
2019-01-13T02:05:15.866Z,14.63
2019-01-13T02:07:46.533Z,14.46
2019-01-13T02:10:20.424Z,14.40
2019-01-13T02:12:52.586Z,14.43
2019-01-13T02:15:25.962Z,14.64
2019-01-13T02:17:56.371Z,14.60
2019-01-13T02:20:26.842Z,14.34
2019-01-13T02:22:57.789Z,14.48
2019-01-13T02:25:29.406Z,14.52
2019-01-13T02:28:00.717Z,14.49
2019-01-13T02:30:31.080Z,14.52
2019-01-13T02:33:02.393Z,14.15
2019-01-13T02:35:33.146Z,14.00
2019-01-13T02:38:03.468Z,14.30
2019-01-13T02:40:33.841Z,14.26
2019-01-13T02:43:04.152Z,13.96
2019-01-13T02:45:35.039Z,14.12
2019-01-13T02:48:06.206Z,14.39
2019-01-13T02:50:36.515Z,14.50
2019-01-13T02:53:06.840Z,14.37
2019-01-13T02:55:38.598Z,14.12
2019-01-13T02:58:08.943Z,14.18
2019-01-13T03:00:39.249Z,14.34
2019-01-13T03:03:12.032Z,13.93
2019-01-13T03:05:42.359Z,13.83
2019-01-13T03:08:13.217Z,13.42
2019-01-13T03:10:43.497Z,14.00
2019-01-13T03:13:14.947Z,14.00
2019-01-13T03:15:45.237Z,14.24
2019-01-13T03:18:17.167Z,14.57
2019-01-13T03:20:47.461Z,14.26
2019-01-13T03:23:17.737Z,14.11
2019-01-13T03:25:48.094Z,14.25
2019-01-13T03:28:18.980Z,14.31
2019-01-13T03:30:49.305Z,14.09
2019-01-13T03:33:19.635Z,14.58
2019-01-13T03:35:50.385Z,14.46
2019-01-13T03:38:21.187Z,14.64
2019-01-13T03:40:51.666Z,14.42
2019-01-13T03:43:21.957Z,14.44
2019-01-13T03:45:52.699Z,14.58
2019-01-13T03:48:23.509Z,14.76
2019-01-13T03:50:54.271Z,14.67
2019-01-13T03:53:24.616Z,14.32
2019-01-13T03:55:54.938Z,14.12
2019-01-13T03:58:25.710Z,13.33
2019-01-13T04:00:56.003Z,13.42
2019-01-13T04:03:26.517Z,13.87
2019-01-13T04:05:56.791Z,13.35
2019-01-13T04:08:29.212Z,13.79
2019-01-13T04:10:59.511Z,13.39
2019-01-13T04:13:30.808Z,13.77
2019-01-13T04:16:01.929Z,14.04
2019-01-13T04:18:32.664Z,14.15
2019-01-13T04:21:02.993Z,14.03
2019-01-13T04:23:34.252Z,14.33
2019-01-13T04:26:04.640Z,14.24
2019-01-13T04:28:35.610Z,14.24
2019-01-13T04:31:05.914Z,14.37
2019-01-13T04:33:36.570Z,14.26
2019-01-13T04:36:06.833Z,13.31
2019-01-13T04:38:38.139Z,14.13
2019-01-13T04:41:08.438Z,14.09
2019-01-13T04:43:38.708Z,13.81
2019-01-13T04:46:09.427Z,14.11
2019-01-13T04:48:40.181Z,14.22
2019-01-13T04:51:10.772Z,13.51
2019-01-13T04:53:42.122Z,13.90
2019-01-13T04:56:13.696Z,13.78
2019-01-13T04:58:44.477Z,13.62
2019-01-13T05:01:15.088Z,13.04
2019-01-13T05:03:45.751Z,13.04
2019-01-13T05:06:16.047Z,12.66
2019-01-13T05:08:46.835Z,13.48
2019-01-13T05:11:18.218Z,13.84
2019-01-13T05:13:49.428Z,13.65
2019-01-13T05:16:21.141Z,13.70
2019-01-13T05:18:51.931Z,14.18
2019-01-13T05:21:22.257Z,12.77
2019-01-13T05:23:52.527Z,13.58
2019-01-13T05:26:24.268Z,13.60
2019-01-13T05:28:55.004Z,13.94
2019-01-13T05:31:25.331Z,13.63
2019-01-13T05:33:55.702Z,13.52
2019-01-13T05:36:25.978Z,13.18
2019-01-13T05:38:56.813Z,13.84
2019-01-13T05:41:27.180Z,12.91
2019-01-13T05:43:58.009Z,12.69
2019-01-13T05:46:28.306Z,13.41
2019-01-13T05:48:59.044Z,13.55
2019-01-13T05:51:29.411Z,12.91
2019-01-13T05:53:59.695Z,12.79
2019-01-13T05:56:31.341Z,13.71
2019-01-13T05:59:02.085Z,13.58
2019-01-13T06:01:33.957Z,13.42
2019-01-13T06:04:04.395Z,13.51
2019-01-13T06:06:34.699Z,13.46
2019-01-13T06:09:07.851Z,12.81
2019-01-13T06:11:38.257Z,12.36
2019-01-13T06:14:10.805Z,13.06
2019-01-13T06:16:41.208Z,13.66
2019-01-13T06:19:12.087Z,13.84
2019-01-13T06:21:42.412Z,14.17
2019-01-13T06:24:12.695Z,13.77
2019-01-13T06:26:43.043Z,14.15
2019-01-13T06:29:13.875Z,13.70
2019-01-13T06:31:45.029Z,13.85
2019-01-13T06:34:15.319Z,13.62
2019-01-13T06:36:45.599Z,13.81
2019-01-13T06:39:16.356Z,14.02
2019-01-13T06:41:46.720Z,14.18
2019-01-13T06:44:17.100Z,13.70
2019-01-13T06:46:47.372Z,13.50
2019-01-13T06:49:18.999Z,13.32
2019-01-13T06:51:50.197Z,13.77
2019-01-13T06:54:20.592Z,14.12
2019-01-13T06:56:51.054Z,13.65
2019-01-13T06:59:22.251Z,14.38
2019-01-13T07:01:52.527Z,13.26
2019-01-13T07:04:24.420Z,13.79
2019-01-13T07:06:54.782Z,14.39
2019-01-13T07:09:25.622Z,14.40
2019-01-13T07:11:55.892Z,14.40
2019-01-13T07:14:27.425Z,14.72
2019-01-13T07:16:57.696Z,14.37
2019-01-13T07:19:29.943Z,14.28
2019-01-13T07:22:00.249Z,14.81
2019-01-13T07:24:30.548Z,14.93
2019-01-13T07:27:01.330Z,14.97
2019-01-13T07:29:31.619Z,15.27
2019-01-13T07:32:02.392Z,15.11
2019-01-13T07:34:32.693Z,14.68
2019-01-13T07:37:02.979Z,14.81
2019-01-13T07:39:33.283Z,14.73
2019-01-13T07:42:04.063Z,14.30
2019-01-13T07:44:34.344Z,14.78
2019-01-13T07:47:04.638Z,14.42
2019-01-13T07:49:34.964Z,14.42
2019-01-13T07:52:05.911Z,14.76
2019-01-13T07:54:37.249Z,14.09
2019-01-13T07:57:07.535Z,14.41
2019-01-13T07:59:37.837Z,14.14
2019-01-13T08:02:08.635Z,14.66
2019-01-13T08:04:39.025Z,14.03
2019-01-13T08:07:09.291Z,14.58
2019-01-13T08:09:39.609Z,14.27
2019-01-13T08:12:10.943Z,14.68
2019-01-13T08:14:42.311Z,14.63
2019-01-13T08:17:12.646Z,14.57
2019-01-13T08:19:42.923Z,14.72
2019-01-13T08:22:13.230Z,13.56
2019-01-13T08:24:44.067Z,14.20
2019-01-13T08:27:14.871Z,14.61
2019-01-13T08:29:45.145Z,14.31
2019-01-13T08:32:15.494Z,13.79
2019-01-13T08:34:45.820Z,14.15
2019-01-13T08:37:16.659Z,13.82
2019-01-13T08:39:46.942Z,14.25
2019-01-13T08:42:17.281Z,14.39
2019-01-13T08:44:47.635Z,14.10
2019-01-13T08:47:17.939Z,14.15
2019-01-13T08:49:48.844Z,14.19
2019-01-13T08:52:19.252Z,14.49
2019-01-13T08:54:49.537Z,14.39
2019-01-13T08:57:20.213Z,14.59
2019-01-13T08:59:50.867Z,14.54
2019-01-13T09:02:21.721Z,14.43
2019-01-13T09:04:52.094Z,14.52
2019-01-13T09:07:22.576Z,14.16
2019-01-13T09:09:53.379Z,14.15
2019-01-13T09:12:23.943Z,14.68
2019-01-13T09:14:55.873Z,14.53
2019-01-13T09:17:27.028Z,14.32
2019-01-13T09:19:57.835Z,14.49
2019-01-13T09:22:28.116Z,14.03
2019-01-13T09:24:58.426Z,14.47
2019-01-13T09:27:28.741Z,14.81
2019-01-13T09:29:59.163Z,14.20
2019-01-13T09:32:30.103Z,14.52
2019-01-13T09:35:01.369Z,14.32
2019-01-13T09:37:31.657Z,14.06
2019-01-13T09:40:01.993Z,14.23
2019-01-13T09:42:32.678Z,14.44
2019-01-13T09:45:03.064Z,14.30
2019-01-13T09:47:33.347Z,14.45
2019-01-13T09:50:05.456Z,14.34
2019-01-13T09:52:36.318Z,14.63
2019-01-13T09:55:07.971Z,13.96
2019-01-13T09:57:38.243Z,13.89
2019-01-13T10:00:13.629Z,14.28
2019-01-13T10:02:46.873Z,14.37
2019-01-13T10:05:17.365Z,14.40
2019-01-13T10:07:47.671Z,14.45
2019-01-13T10:10:18.018Z,14.41
2019-01-13T10:12:48.300Z,14.14
2019-01-13T10:15:21.449Z,14.57
2019-01-13T10:17:52.762Z,14.28
2019-01-13T10:20:23.707Z,14.30
2019-01-13T10:22:54.233Z,14.11
2019-01-13T10:25:25.607Z,14.34
2019-01-13T10:27:55.992Z,14.16
2019-01-13T10:30:28.508Z,14.19
2019-01-13T10:32:58.794Z,14.43
2019-01-13T10:35:30.288Z,14.45
2019-01-13T10:38:00.585Z,14.68
2019-01-13T10:40:32.182Z,14.63
2019-01-13T10:43:02.492Z,14.38
2019-01-13T10:45:33.259Z,14.02
2019-01-13T10:48:03.558Z,14.43
2019-01-13T10:50:34.586Z,14.18
2019-01-13T10:53:07.135Z,14.42
2019-01-13T10:55:37.998Z,14.60
2019-01-13T10:58:08.342Z,14.69
2019-01-13T11:00:39.515Z,14.55
2019-01-13T11:03:09.797Z,14.41
2019-01-13T11:05:41.250Z,14.65
2019-01-13T11:08:12.800Z,14.61
2019-01-13T11:10:43.235Z,14.60
2019-01-13T11:13:13.555Z,14.96
2019-01-13T11:15:45.230Z,15.18
2019-01-13T11:18:15.536Z,14.84
2019-01-13T11:20:47.092Z,15.01
2019-01-13T11:23:17.556Z,14.82
2019-01-13T11:25:48.560Z,14.92
2019-01-13T11:28:18.889Z,13.80
2019-01-13T11:30:49.322Z,14.32
2019-01-13T11:33:19.615Z,14.63
2019-01-13T11:35:51.653Z,14.44
2019-01-13T11:38:21.936Z,14.84
2019-01-13T11:40:52.313Z,14.90
2019-01-13T11:43:22.607Z,14.80
2019-01-13T11:45:53.553Z,14.47
2019-01-13T11:48:23.831Z,14.64
2019-01-13T11:50:55.734Z,14.96
2019-01-13T11:53:26.061Z,14.83
2019-01-13T11:55:57.001Z,14.51
2019-01-13T11:58:27.611Z,14.77
2019-01-13T12:00:57.997Z,14.54
2019-01-13T12:03:28.299Z,14.84
2019-01-13T12:06:00.434Z,14.47
2019-01-13T12:08:30.753Z,14.59
2019-01-13T12:11:01.089Z,14.49
2019-01-13T12:13:31.386Z,14.39
2019-01-13T12:16:03.272Z,14.47
2019-01-13T12:18:40.345Z,14.26
2019-01-13T12:21:06.018Z,14.67
2019-01-13T12:23:36.319Z,14.90
2019-01-13T12:26:07.234Z,14.92
2019-01-13T12:28:37.560Z,14.49
2019-01-13T12:31:07.897Z,15.01
2019-01-13T12:33:38.195Z,15.03
2019-01-13T12:36:10.740Z,14.87
2019-01-13T12:38:41.184Z,15.02
2019-01-13T12:41:13.192Z,14.26
2019-01-13T12:43:43.466Z,14.61
2019-01-13T12:46:14.247Z,14.72
2019-01-13T12:48:44.523Z,14.50
2019-01-13T12:51:15.411Z,14.88
2019-01-13T12:53:45.744Z,14.47
2019-01-13T12:56:16.679Z,14.37
2019-01-13T12:58:46.973Z,14.74
2019-01-13T13:01:17.279Z,14.92
2019-01-13T13:03:47.559Z,15.09
2019-01-13T13:06:19.929Z,15.06
2019-01-13T13:08:50.332Z,15.18
2019-01-13T13:11:20.600Z,14.90
2019-01-13T13:13:50.987Z,14.72
2019-01-13T13:16:22.538Z,14.79
2019-01-13T13:18:52.972Z,14.53
2019-01-13T13:21:23.527Z,14.74
2019-01-13T13:23:54.771Z,14.77
2019-01-13T13:26:25.524Z,14.52
2019-01-13T13:28:55.973Z,15.07
2019-01-13T13:31:26.256Z,14.81
2019-01-13T13:33:56.539Z,14.75
2019-01-13T13:36:27.336Z,14.50
2019-01-13T13:38:59.077Z,14.77
2019-01-13T13:41:30.429Z,15.00
2019-01-13T13:44:00.730Z,14.23
2019-01-13T13:46:31.181Z,14.82
2019-01-13T13:49:01.586Z,14.88
2019-01-13T13:51:32.449Z,14.34
2019-01-13T13:54:02.728Z,14.21
2019-01-13T13:56:34.354Z,14.43
2019-01-13T13:59:04.653Z,14.67
2019-01-13T14:01:36.255Z,14.31
2019-01-13T14:04:06.537Z,14.53
2019-01-13T14:06:36.839Z,14.11
2019-01-13T14:09:09.172Z,14.68
2019-01-13T14:11:40.725Z,14.15
2019-01-13T14:14:11.122Z,14.37
2019-01-13T14:16:43.417Z,14.74
2019-01-13T14:19:16.356Z,14.96
2019-01-13T14:21:47.560Z,14.68
2019-01-13T14:24:17.891Z,14.66
2019-01-13T14:26:49.105Z,14.99
2019-01-13T14:29:19.423Z,14.80
2019-01-13T14:31:50.572Z,14.75
2019-01-13T14:34:20.919Z,14.77
2019-01-13T14:36:51.549Z,14.56
2019-01-13T14:39:21.851Z,14.18
2019-01-13T14:41:53.170Z,14.50
2019-01-13T14:44:23.495Z,14.35
2019-01-13T14:46:54.265Z,14.99
2019-01-13T14:49:24.594Z,14.96
2019-01-13T14:51:55.449Z,14.77
2019-01-13T14:54:25.810Z,14.92
2019-01-13T14:56:57.343Z,15.04
2019-01-13T14:59:27.660Z,14.86
2019-01-13T15:01:58.497Z,14.98
2019-01-13T15:04:28.921Z,14.58
2019-01-13T15:06:59.226Z,14.65
2019-01-13T15:09:29.534Z,14.64
2019-01-13T15:12:00.798Z,14.17
2019-01-13T15:14:31.126Z,14.23
2019-01-13T15:17:01.659Z,14.43
2019-01-13T15:19:32.026Z,14.62
2019-01-13T15:22:02.789Z,14.52
2019-01-13T15:24:33.191Z,14.15
2019-01-13T15:27:03.468Z,14.44
2019-01-13T15:29:33.850Z,14.27
2019-01-13T15:32:04.638Z,14.65
2019-01-13T15:34:35.024Z,14.51
2019-01-13T15:37:05.356Z,14.48
2019-01-13T15:39:35.620Z,14.38
2019-01-13T15:42:05.923Z,14.70
2019-01-13T15:44:36.883Z,14.78
2019-01-13T15:47:07.316Z,14.76
2019-01-13T15:49:37.638Z,14.46
2019-01-13T15:52:07.982Z,14.84
2019-01-13T15:54:38.886Z,14.78
2019-01-13T15:57:09.208Z,14.84
2019-01-13T15:59:39.520Z,15.10
2019-01-13T16:02:10.913Z,14.88
2019-01-13T16:04:41.672Z,14.39
2019-01-13T16:07:11.986Z,14.48
2019-01-13T16:09:42.286Z,14.84
2019-01-13T16:12:12.594Z,14.49
2019-01-13T16:14:43.005Z,14.27
2019-01-13T16:17:14.927Z,14.44
2019-01-13T16:19:45.331Z,14.57
2019-01-13T16:22:15.613Z,14.82
2019-01-13T16:24:45.917Z,14.66
2019-01-13T16:27:16.821Z,14.93
2019-01-13T16:29:47.500Z,14.81
2019-01-13T16:32:17.766Z,14.94
2019-01-13T16:34:49.443Z,14.70
2019-01-13T16:37:20.256Z,14.73
2019-01-13T16:39:50.673Z,14.76
2019-01-13T16:42:21.069Z,14.53
2019-01-13T16:44:51.418Z,14.86
2019-01-13T16:47:22.381Z,15.20
2019-01-13T16:49:52.664Z,15.11
2019-01-13T16:52:24.385Z,15.12
2019-01-13T16:54:54.711Z,15.35
2019-01-13T16:57:25.960Z,14.57
2019-01-13T16:59:57.136Z,14.28
2019-01-13T17:02:33.039Z,14.55
2019-01-13T17:04:59.620Z,14.51
2019-01-13T17:07:30.950Z,14.89
2019-01-13T17:10:01.236Z,14.83
2019-01-13T17:12:31.519Z,14.88
2019-01-13T17:15:01.906Z,14.90
2019-01-13T17:17:33.769Z,14.78
2019-01-13T17:20:04.839Z,14.67
2019-01-13T17:22:35.139Z,14.92
2019-01-13T17:25:07.225Z,15.16
2019-01-13T17:27:38.068Z,14.76
2019-01-13T17:30:12.901Z,14.87
2019-01-13T17:32:43.247Z,15.04
2019-01-13T17:35:13.672Z,14.73
2019-01-13T17:37:43.996Z,14.64
2019-01-13T17:40:16.298Z,14.51
2019-01-13T17:42:47.105Z,14.47
2019-01-13T17:45:18.906Z,14.89
2019-01-13T17:47:49.461Z,14.69
2019-01-13T17:50:22.299Z,14.89
2019-01-13T17:52:53.460Z,14.69
2019-01-13T17:55:25.195Z,15.04
2019-01-13T17:57:57.180Z,15.07
2019-01-13T18:00:40.174Z,14.82
2019-01-13T18:03:13.042Z,14.75
2019-01-13T18:05:44.761Z,14.22
2019-01-13T18:08:16.491Z,13.99
2019-01-13T18:10:49.791Z,13.30
2019-01-13T18:13:22.274Z,13.27
2019-01-13T18:15:54.225Z,13.73
2019-01-13T18:18:26.277Z,13.35
2019-01-13T18:20:57.896Z,13.15
2019-01-13T18:23:31.430Z,13.21
2019-01-13T18:26:03.796Z,13.40
2019-01-13T18:28:39.600Z,13.60
2019-01-13T18:31:11.006Z,13.13
2019-01-13T18:33:42.375Z,13.50
2019-01-13T18:36:14.425Z,13.67
2019-01-13T18:38:45.471Z,13.65
2019-01-13T18:41:18.352Z,13.86
2019-01-13T18:43:51.829Z,13.80
2019-01-13T18:46:23.926Z,13.96
2019-01-13T18:48:56.391Z,13.77
2019-01-13T18:51:29.310Z,14.17
2019-01-13T18:54:02.180Z,14.04
2019-01-13T18:56:34.023Z,14.07
2019-01-13T18:59:07.973Z,14.37
2019-01-13T19:01:39.397Z,14.39
2019-01-13T19:04:13.214Z,14.17
2019-01-13T19:06:45.480Z,13.98
2019-01-13T19:09:18.465Z,14.14
2019-01-13T19:11:54.071Z,14.16
2019-01-13T19:14:48.623Z,14.22
2019-01-13T19:17:28.878Z,14.21
2019-01-13T19:20:29.497Z,13.78
2019-01-13T19:23:05.761Z,14.42
2019-01-13T19:25:39.471Z,14.45
2019-01-13T19:28:17.884Z,13.95
2019-01-13T19:30:51.083Z,13.98
2019-01-13T19:33:23.340Z,14.43
2019-01-13T19:35:57.473Z,14.26
2019-01-13T19:38:31.473Z,14.15
2019-01-13T19:41:02.245Z,13.33
2019-01-13T19:43:32.556Z,11.85
2019-01-13T19:46:04.231Z,11.60
2019-01-13T19:48:34.495Z,11.29
2019-01-13T19:51:05.359Z,11.43
2019-01-13T19:53:35.614Z,11.39
2019-01-13T19:56:06.029Z,12.20
2019-01-13T19:58:36.319Z,11.45
2019-01-13T20:01:08.272Z,11.96
2019-01-13T20:03:38.561Z,11.70
2019-01-13T20:06:09.159Z,11.47
2019-01-13T20:08:39.561Z,11.23
2019-01-13T20:11:10.402Z,11.03
2019-01-13T20:13:40.709Z,11.45
2019-01-13T20:16:12.120Z,11.49
2019-01-13T20:18:42.421Z,11.35
2019-01-13T20:21:14.230Z,11.94
2019-01-13T20:23:44.560Z,11.92
2019-01-13T20:26:14.888Z,11.99
2019-01-13T20:28:45.186Z,12.02
2019-01-13T20:31:17.378Z,12.02
2019-01-13T20:33:47.665Z,12.42
2019-01-13T20:36:18.066Z,12.67
2019-01-13T20:38:48.372Z,12.50
2019-01-13T20:41:19.171Z,12.61
2019-01-13T20:43:49.444Z,12.66
2019-01-13T20:46:20.824Z,11.93
2019-01-13T20:48:51.144Z,12.38
2019-01-13T20:51:21.938Z,12.20
2019-01-13T20:53:52.249Z,12.51
2019-01-13T20:56:22.558Z,12.44
2019-01-13T20:58:52.892Z,12.22
2019-01-13T21:01:23.774Z,13.03
2019-01-13T21:03:55.786Z,12.87
2019-01-13T21:06:26.099Z,13.07
2019-01-13T21:08:56.830Z,13.27
2019-01-13T21:11:27.585Z,13.62
2019-01-13T21:13:57.911Z,13.44
2019-01-13T21:16:28.428Z,13.89
2019-01-13T21:18:58.690Z,14.03
2019-01-13T21:21:30.308Z,14.40
2019-01-13T21:24:01.965Z,14.41
2019-01-13T21:26:34.179Z,13.91
2019-01-13T21:29:04.585Z,14.26
2019-01-13T21:31:35.025Z,14.26
2019-01-13T21:34:05.416Z,14.36
2019-01-13T21:36:35.760Z,14.02
2019-01-13T21:39:10.367Z,13.88
2019-01-13T21:41:41.227Z,13.63
2019-01-13T21:44:11.553Z,13.20
2019-01-13T21:46:41.859Z,13.59
2019-01-13T21:49:12.501Z,13.36
2019-01-13T21:51:44.252Z,13.56
2019-01-13T21:54:16.150Z,13.49
2019-01-13T21:56:46.436Z,13.43
2019-01-13T21:59:16.707Z,13.77
2019-01-13T22:01:47.091Z,13.69
2019-01-13T22:04:17.922Z,13.79
2019-01-13T22:06:51.190Z,13.57
2019-01-13T22:09:21.479Z,13.87
2019-01-13T22:11:51.823Z,13.48
2019-01-13T22:14:22.120Z,13.63
2019-01-13T22:16:53.290Z,13.65
2019-01-13T22:19:23.545Z,13.70
2019-01-13T22:21:55.797Z,13.25
2019-01-13T22:24:26.083Z,13.28
2019-01-13T22:26:56.903Z,13.69
2019-01-13T22:29:27.250Z,13.78
2019-01-13T22:31:57.556Z,14.00
2019-01-13T22:34:27.949Z,13.06
2019-01-13T22:36:58.825Z,13.75
2019-01-13T22:39:29.125Z,13.93
2019-01-13T22:41:59.493Z,13.54
2019-01-13T22:44:29.821Z,13.47
2019-01-13T22:47:00.635Z,13.51
2019-01-13T22:49:30.983Z,13.17
2019-01-13T22:52:01.368Z,13.47
2019-01-13T22:54:31.668Z,13.48
2019-01-13T22:57:02.079Z,13.56
2019-01-13T22:59:32.842Z,13.28
2019-01-13T23:02:03.624Z,13.35
2019-01-13T23:04:33.971Z,13.81
2019-01-13T23:07:04.685Z,13.78
2019-01-13T23:09:35.462Z,14.07
2019-01-13T23:12:05.922Z,14.13
2019-01-13T23:14:36.211Z,14.41
2019-01-13T23:17:06.571Z,14.05
2019-01-13T23:19:36.860Z,13.22
2019-01-13T23:22:09.063Z,13.20
2019-01-13T23:24:39.368Z,13.52
2019-01-13T23:27:09.663Z,13.45
2019-01-13T23:29:40.479Z,13.52
2019-01-13T23:32:11.312Z,13.78
2019-01-13T23:34:41.647Z,13.68
2019-01-13T23:37:13.119Z,13.60
2019-01-13T23:39:43.546Z,13.80
2019-01-13T23:42:15.215Z,13.87
2019-01-13T23:44:47.039Z,13.86
2019-01-13T23:47:19.664Z,13.90
2019-01-13T23:49:51.106Z,14.01
2019-01-13T23:52:23.802Z,13.62
2019-01-13T23:54:56.065Z,13.13
2019-01-13T23:57:30.799Z,12.97
